Time;durP1;ratioP1;P1;durP2;ratioP2;P2;SDS_P1;SDS_P2;PMS_P1;PMS_P2;Temp;Humidity;BMP_temperature;BMP_pressure;BME280_temperature;BME280_humidity;BME280_pressure;Samples;Min_cycle;Max_cycle;Signal;HPM_P1;HPM_P2
2022/11/17 00:01:19;;;;;;;2.70;2.17;;;4.90;99.90;;;;;;5091074;28;20514;-47
2022/11/17 00:03:48;;;;;;;2.40;1.53;;;5.00;99.90;;;;;;5090975;28;20459;-48
2022/11/17 00:06:15;;;;;;;2.13;1.60;;;5.00;99.90;;;;;;5092601;28;20525;-47
2022/11/17 00:08:42;;;;;;;3.90;2.77;;;5.00;99.90;;;;;;5093086;28;20438;-48
2022/11/17 00:11:09;;;;;;;3.80;2.50;;;5.10;99.90;;;;;;5093072;28;20447;-47
2022/11/17 00:16:21;;;;;;;3.97;1.30;;;4.70;99.90;;;;;;5072281;28;20421;-47
2022/11/17 00:21:34;;;;;;;1.60;0.70;;;4.10;99.90;;;;;;5072329;28;20533;-47
2022/11/17 00:24:01;;;;;;;1.10;0.80;;;4.50;99.90;;;;;;5071927;28;20471;-47
2022/11/17 00:26:29;;;;;;;1.00;0.63;;;4.80;99.90;;;;;;5073610;28;20965;-47
2022/11/17 00:28:57;;;;;;;1.10;0.90;;;5.00;99.90;;;;;;5091919;28;20527;-48
2022/11/17 00:34:15;;;;;;;9.37;2.87;;;5.00;99.90;;;;;;5091886;28;20831;-47
2022/11/17 00:36:44;;;;;;;5.30;2.70;;;5.10;99.90;;;;;;5092523;28;20541;-48
2022/11/17 00:39:12;;;;;;;11.03;3.10;;;4.80;99.90;;;;;;5091937;28;21244;-47
2022/11/17 00:41:40;;;;;;;3.73;2.77;;;4.50;99.90;;;;;;5076592;28;20534;-49
2022/11/17 00:44:07;;;;;;;3.03;2.73;;;4.60;99.90;;;;;;5071747;28;20570;-47
2022/11/17 00:46:35;;;;;;;6.03;3.00;;;4.60;99.90;;;;;;5073209;28;20544;-49
2022/11/17 00:49:03;;;;;;;6.17;2.43;;;4.60;99.90;;;;;;5071994;28;20450;-47
2022/11/17 00:51:32;;;;;;;1.63;1.17;;;4.60;99.90;;;;;;5072687;28;20537;-50
2022/11/17 00:53:59;;;;;;;1.60;1.10;;;4.80;99.90;;;;;;5071725;28;20552;-48
2022/11/17 00:56:26;;;;;;;1.30;1.03;;;4.60;99.90;;;;;;5071529;28;21019;-47
2022/11/17 00:58:53;;;;;;;1.23;0.60;;;4.50;99.90;;;;;;5072992;28;20493;-48
2022/11/17 01:01:20;;;;;;;1.20;0.73;;;4.40;99.90;;;;;;5092019;28;20445;-48
2022/11/17 01:03:48;;;;;;;0.90;0.50;;;4.40;99.90;;;;;;5091550;28;21007;-48
2022/11/17 01:06:17;;;;;;;0.90;0.50;;;4.70;99.90;;;;;;5083880;28;20443;-49
2022/11/17 01:08:46;;;;;;;0.90;0.57;;;5.00;99.90;;;;;;5071485;28;20494;-47
2022/11/17 01:11:15;;;;;;;2.30;1.73;;;5.10;99.90;;;;;;5071673;28;20633;-47
2022/11/17 01:13:43;;;;;;;3.57;2.63;;;5.10;99.90;;;;;;5070463;28;20547;-46
2022/11/17 01:16:12;;;;;;;3.10;2.43;;;5.10;99.90;;;;;;5071467;28;20531;-47
2022/11/17 01:18:39;;;;;;;3.03;2.70;;;4.90;99.90;;;;;;5086852;28;20472;-47
2022/11/17 01:21:09;;;;;;;3.70;3.10;;;4.90;99.90;;;;;;5086751;28;21023;-47
2022/11/17 01:23:37;;;;;;;2.40;1.53;;;4.80;99.90;;;;;;5071320;28;20476;-47
2022/11/17 01:26:08;;;;;;;2.03;1.07;;;4.90;99.90;;;;;;5071443;28;20537;-47
2022/11/17 01:28:35;;;;;;;1.53;0.67;;;5.00;99.90;;;;;;5071298;28;20537;-48
2022/11/17 01:31:05;;;;;;;1.00;0.63;;;5.10;99.90;;;;;;5071533;28;20448;-49
2022/11/17 01:33:33;;;;;;;1.37;0.90;;;5.20;99.90;;;;;;5071250;28;20710;-47
2022/11/17 01:36:04;;;;;;;1.40;1.00;;;5.30;99.90;;;;;;5077098;28;20474;-48
2022/11/17 01:38:32;;;;;;;3.87;1.40;;;5.30;99.90;;;;;;5091377;28;20434;-48
2022/11/17 01:41:00;;;;;;;1.10;0.80;;;5.30;99.90;;;;;;5089579;28;20517;-47
2022/11/17 01:43:43;;;;;;;1.10;0.67;;;5.30;99.90;;;;;;5091280;28;20459;-47
2022/11/17 01:46:19;;;;;;;0.90;0.50;;;4.80;99.90;;;;;;5091098;28;20449;-48
2022/11/17 01:48:48;;;;;;;1.00;0.63;;;4.90;99.90;;;;;;5091477;28;20459;-48
2022/11/17 01:51:16;;;;;;;2.83;1.23;;;5.00;99.90;;;;;;5088394;28;20451;-47
2022/11/17 01:53:44;;;;;;;2.80;2.00;;;5.10;99.90;;;;;;5070579;28;20997;-47
2022/11/17 01:56:15;;;;;;;3.70;2.40;;;5.20;99.90;;;;;;5070987;28;20446;-48
2022/11/17 01:58:50;;;;;;;1.27;1.13;;;5.20;99.90;;;;;;5071120;28;20542;-50
2022/11/17 02:01:17;;;;;;;14.63;13.10;;;5.10;99.90;;;;;;5071040;28;20473;-47
2022/11/17 02:03:47;;;;;;;2.60;2.40;;;5.20;99.90;;;;;;5070709;28;20466;-48
2022/11/17 02:06:20;;;;;;;2.17;1.97;;;4.70;99.90;;;;;;5070892;28;20443;-48
2022/11/17 02:08:49;;;;;;;3.17;2.70;;;4.40;99.90;;;;;;5071169;28;20535;-48
2022/11/17 02:11:19;;;;;;;3.50;2.17;;;4.20;99.90;;;;;;5090570;28;20886;-47
2022/11/17 02:13:48;;;;;;;2.40;1.97;;;4.40;99.90;;;;;;5090965;28;20459;-48
2022/11/17 02:16:16;;;;;;;1.70;1.50;;;4.70;99.90;;;;;;5090841;28;20456;-49
2022/11/17 02:18:45;;;;;;;3.10;1.93;;;4.60;99.90;;;;;;5090965;28;20531;-47
2022/11/17 02:21:48;;;;;;;2.00;1.67;;;4.90;99.90;;;;;;5091286;28;20923;-47
2022/11/17 02:24:56;;;;;;;2.00;1.50;;;5.00;99.90;;;;;;5094216;28;21001;-48
2022/11/17 02:27:50;;;;;;;3.20;2.90;;;5.10;99.90;;;;;;5078543;28;20527;-48
2022/11/17 02:30:19;;;;;;;3.40;3.10;;;5.00;99.90;;;;;;5074585;28;20815;-48
2022/11/17 02:32:57;;;;;;;4.90;4.37;;;4.60;99.90;;;;;;5080829;28;20446;-47
2022/11/17 02:35:27;;;;;;;2.93;2.63;;;4.20;99.90;;;;;;5094658;28;20998;-47
2022/11/17 02:38:04;;;;;;;3.43;3.07;;;4.40;99.90;;;;;;5094883;28;20448;-47
2022/11/17 02:40:34;;;;;;;1.70;1.50;;;4.80;99.90;;;;;;5094841;28;20476;-47
2022/11/17 02:46:01;;;;;;;2.00;0.97;;;4.90;99.90;;;;;;5088285;28;21056;-50
2022/11/17 02:48:31;;;;;;;1.00;0.70;;;4.90;99.90;;;;;;5074498;28;20534;-49
2022/11/17 02:50:59;;;;;;;3.77;0.80;;;4.90;99.90;;;;;;5074159;28;20980;-48
2022/11/17 02:53:27;;;;;;;4.80;2.87;;;5.20;99.90;;;;;;5073952;28;20550;-48
2022/11/17 02:55:55;;;;;;;2.40;1.70;;;5.20;99.90;;;;;;5075333;28;20444;-48
2022/11/17 02:58:23;;;;;;;2.57;2.37;;;5.30;99.90;;;;;;5094483;28;20450;-48
2022/11/17 03:01:07;;;;;;;5.00;4.60;;;5.30;99.90;;;;;;5093912;28;20472;-47
2022/11/17 03:03:48;;;;;;;3.93;3.17;;;5.20;99.90;;;;;;5093841;28;20460;-47
2022/11/17 03:06:23;;;;;;;2.00;1.80;;;5.20;99.90;;;;;;5092759;28;20529;-49
2022/11/17 03:08:59;;;;;;;4.00;3.60;;;5.30;99.90;;;;;;5074042;28;20447;-50
2022/11/17 03:11:34;;;;;;;3.10;2.27;;;5.10;99.90;;;;;;5073893;28;20869;-47
2022/11/17 03:14:08;;;;;;;2.70;1.23;;;5.20;99.90;;;;;;5073122;28;20562;-49
2022/11/17 03:16:38;;;;;;;0.97;0.60;;;5.20;99.90;;;;;;5074096;28;20449;-51
2022/11/17 03:19:12;;;;;;;1.53;0.73;;;5.30;99.90;;;;;;5073704;28;20818;-48
2022/11/17 03:21:44;;;;;;;1.90;1.40;;;5.40;99.90;;;;;;5073562;28;20544;-48
2022/11/17 03:24:17;;;;;;;2.93;2.33;;;5.40;99.90;;;;;;5073329;28;20563;-48
2022/11/17 03:26:48;;;;;;;2.43;2.23;;;5.40;99.90;;;;;;5073386;28;20534;-48
2022/11/17 03:29:21;;;;;;;2.87;2.03;;;5.40;99.90;;;;;;5073441;28;21138;-47
2022/11/17 03:31:50;;;;;;;6.23;4.03;;;5.40;99.90;;;;;;5073637;28;20531;-48
2022/11/17 03:34:21;;;;;;;5.23;3.77;;;5.20;99.90;;;;;;5073131;28;21032;-47
2022/11/17 03:36:54;;;;;;;3.40;2.40;;;5.20;99.90;;;;;;5072611;28;20450;-50
2022/11/17 03:39:27;;;;;;;4.23;3.20;;;5.20;99.90;;;;;;5072966;28;20526;-49
2022/11/17 03:41:59;;;;;;;2.80;2.37;;;5.30;99.90;;;;;;5073481;28;20563;-47
2022/11/17 03:44:31;;;;;;;2.23;1.80;;;5.20;99.90;;;;;;5074088;28;20554;-47
2022/11/17 03:47:01;;;;;;;2.37;1.33;;;5.30;99.90;;;;;;5073221;28;20450;-47
2022/11/17 03:49:36;;;;;;;2.67;1.27;;;5.30;99.90;;;;;;5072842;28;20451;-48
2022/11/17 03:52:04;;;;;;;1.20;1.10;;;5.20;99.90;;;;;;5073285;28;20530;-50
2022/11/17 03:54:31;;;;;;;1.67;1.33;;;5.00;99.90;;;;;;5072836;28;20547;-48
2022/11/17 03:57:04;;;;;;;1.30;0.90;;;4.80;99.90;;;;;;5073095;28;20806;-48
2022/11/17 03:59:41;;;;;;;1.40;0.90;;;5.10;99.90;;;;;;5073471;28;20470;-47
2022/11/17 04:02:09;;;;;;;1.93;1.40;;;5.30;99.90;;;;;;5072581;28;20454;-47
2022/11/17 04:07:16;;;;;;;2.00;1.37;;;5.30;99.90;;;;;;5053225;28;20793;-48
2022/11/17 04:09:43;;;;;;;2.00;1.70;;;5.30;99.90;;;;;;5052741;28;20518;-47
2022/11/17 04:17:39;;;;;;;2.90;2.60;;;5.20;99.90;;;;;;5052784;28;20423;-49
2022/11/17 04:20:07;;;;;;;3.20;2.67;;;4.50;99.90;;;;;;5058660;28;20473;-47
2022/11/17 04:22:34;;;;;;;2.70;2.47;;;4.10;99.90;;;;;;5072172;28;20879;-47
2022/11/17 04:25:00;;;;;;;2.30;2.10;;;4.30;99.90;;;;;;5071609;28;20478;-47
2022/11/17 04:30:13;;;;;;;2.03;1.90;;;4.80;99.90;;;;;;5072365;28;20538;-50
2022/11/17 04:32:40;;;;;;;2.00;1.50;;;5.00;99.90;;;;;;5071878;28;20529;-47
2022/11/17 04:35:08;;;;;;;2.97;2.03;;;5.10;99.90;;;;;;5072025;28;20444;-48
2022/11/17 04:37:35;;;;;;;2.63;2.33;;;5.20;99.90;;;;;;5072336;28;20447;-47
2022/11/17 04:40:02;;;;;;;2.57;2.37;;;5.10;99.90;;;;;;5072400;28;20486;-47
2022/11/17 04:42:28;;;;;;;2.67;2.47;;;5.10;99.90;;;;;;5071795;28;20474;-46
2022/11/17 04:44:55;;;;;;;2.23;1.80;;;5.10;99.90;;;;;;5072224;28;20494;-48
2022/11/17 04:47:23;;;;;;;1.47;1.17;;;4.90;99.90;;;;;;5071043;28;20891;-47
2022/11/17 04:49:50;;;;;;;3.23;0.90;;;4.70;99.90;;;;;;5071760;28;20889;-47
2022/11/17 04:52:17;;;;;;;1.67;1.57;;;4.80;99.90;;;;;;5072014;28;20454;-48
2022/11/17 04:54:43;;;;;;;1.60;1.30;;;4.90;99.90;;;;;;5071778;28;20840;-48
2022/11/17 04:57:10;;;;;;;1.97;1.60;;;4.80;99.90;;;;;;5071836;28;20457;-48
2022/11/17 04:59:37;;;;;;;1.70;1.60;;;4.80;99.90;;;;;;5071697;28;20802;-47
2022/11/17 05:02:04;;;;;;;2.00;1.80;;;5.00;99.90;;;;;;5072749;28;20536;-48
2022/11/17 05:07:16;;;;;;;2.37;1.80;;;4.70;99.90;;;;;;5071623;28;20496;-47
2022/11/17 05:09:43;;;;;;;2.13;1.80;;;4.90;99.90;;;;;;5071734;28;20532;-47
2022/11/17 05:14:54;;;;;;;3.80;2.60;;;4.90;99.90;;;;;;5070753;28;20444;-47
2022/11/17 05:17:20;;;;;;;3.50;3.17;;;4.90;99.90;;;;;;5071545;28;20444;-49
2022/11/17 05:19:48;;;;;;;2.10;1.90;;;4.40;99.90;;;;;;5071621;28;20447;-50
2022/11/17 05:25:02;;;;;;;2.60;2.37;;;4.50;99.90;;;;;;5071069;28;20466;-47
2022/11/17 05:27:29;;;;;;;4.73;4.33;;;4.70;99.90;;;;;;5090585;28;20522;-50
2022/11/17 05:29:56;;;;;;;3.20;2.90;;;4.90;99.90;;;;;;5091696;28;20531;-47
2022/11/17 05:32:23;;;;;;;1.43;1.00;;;4.60;99.90;;;;;;5091553;28;20451;-47
2022/11/17 05:34:51;;;;;;;3.50;3.13;;;4.40;99.90;;;;;;5091256;28;20587;-50
2022/11/17 05:37:18;;;;;;;6.93;4.40;;;4.20;99.90;;;;;;5072787;28;20816;-50
2022/11/17 05:39:44;;;;;;;3.30;2.50;;;4.20;99.90;;;;;;5071515;28;20441;-47
2022/11/17 05:42:11;;;;;;;3.20;2.83;;;4.00;99.90;;;;;;5071307;28;20446;-47
2022/11/17 05:44:38;;;;;;;4.37;3.97;;;4.10;99.90;;;;;;5070841;28;20459;-47
2022/11/17 05:47:05;;;;;;;5.80;3.50;;;4.50;99.90;;;;;;5071135;28;20450;-47
2022/11/17 05:49:32;;;;;;;3.43;3.13;;;4.60;99.90;;;;;;5071051;28;21019;-48
2022/11/17 05:52:00;;;;;;;4.00;2.87;;;4.50;99.90;;;;;;5071061;28;20449;-48
2022/11/17 05:54:27;;;;;;;2.70;2.50;;;4.60;99.90;;;;;;5070654;28;21066;-47
2022/11/17 05:56:59;;;;;;;2.37;2.03;;;4.80;99.90;;;;;;5070886;28;20546;-48
2022/11/17 05:59:29;;;;;;;3.53;2.40;;;4.70;99.90;;;;;;5073770;28;20536;-48
2022/11/17 06:02:00;;;;;;;10.03;3.50;;;4.80;99.90;;;;;;5086745;28;20552;-48
2022/11/17 06:04:28;;;;;;;5.33;4.83;;;4.60;99.90;;;;;;5095248;28;20455;-49
2022/11/17 06:06:57;;;;;;;4.50;4.20;;;4.10;99.90;;;;;;5095172;28;20867;-48
2022/11/17 06:09:26;;;;;;;5.90;5.47;;;4.10;99.90;;;;;;5093309;28;20827;-49
2022/11/17 06:11:53;;;;;;;6.50;5.87;;;4.20;99.90;;;;;;5074952;28;20451;-48
2022/11/17 06:14:20;;;;;;;4.90;4.50;;;4.10;99.90;;;;;;5076392;28;20466;-49
2022/11/17 06:16:50;;;;;;;3.90;3.50;;;4.40;99.90;;;;;;5095334;28;20892;-48
2022/11/17 06:19:21;;;;;;;3.43;3.13;;;4.60;99.90;;;;;;5094961;28;20475;-49
2022/11/17 06:21:48;;;;;;;2.67;2.47;;;4.80;99.90;;;;;;5092848;28;20564;-49
2022/11/17 06:24:16;;;;;;;10.23;4.83;;;4.90;99.90;;;;;;5094388;28;20924;-49
2022/11/17 06:26:45;;;;;;;4.57;4.13;;;5.10;99.90;;;;;;5094939;28;20498;-48
2022/11/17 06:29:13;;;;;;;4.20;3.80;;;4.80;99.90;;;;;;5094983;28;20442;-49
2022/11/17 06:31:41;;;;;;;3.80;3.50;;;4.30;99.90;;;;;;5094893;28;20439;-49
2022/11/17 06:34:09;;;;;;;4.33;3.20;;;4.40;99.90;;;;;;5094627;28;20555;-49
2022/11/17 06:36:36;;;;;;;3.63;3.30;;;4.80;99.90;;;;;;5074320;28;20454;-44
2022/11/17 06:39:03;;;;;;;4.17;3.77;;;4.90;99.90;;;;;;5074221;28;20455;-46
2022/11/17 06:41:29;;;;;;;4.87;4.37;;;4.90;99.90;;;;;;5074516;28;20516;-46
2022/11/17 06:43:58;;;;;;;8.00;7.00;;;5.00;99.90;;;;;;5073770;28;20853;-46
2022/11/17 06:46:36;;;;;;;6.83;3.90;;;5.00;99.90;;;;;;5074462;28;20959;-46
2022/11/17 06:49:04;;;;;;;2.60;2.20;;;5.10;99.90;;;;;;5074267;28;20454;-45
2022/11/17 06:51:31;;;;;;;3.10;2.27;;;5.20;99.90;;;;;;5074736;28;20443;-46
2022/11/17 06:53:57;;;;;;;5.90;4.07;;;5.10;99.90;;;;;;5074893;28;20468;-46
2022/11/17 06:56:24;;;;;;;4.10;3.63;;;4.90;99.90;;;;;;5074028;28;20808;-46
2022/11/17 06:58:51;;;;;;;6.77;4.70;;;5.10;99.90;;;;;;5075427;28;20886;-46
2022/11/17 07:01:19;;;;;;;10.87;7.10;;;5.20;99.90;;;;;;5073827;28;20507;-46
2022/11/17 07:03:46;;;;;;;12.40;9.27;;;5.30;99.90;;;;;;5073400;28;21023;-46
2022/11/17 07:06:14;;;;;;;9.87;8.97;;;5.30;99.90;;;;;;5092382;28;20524;-46
2022/11/17 07:08:41;;;;;;;10.40;9.40;;;5.20;99.90;;;;;;5094139;28;20455;-49
2022/11/17 07:11:11;;;;;;;12.03;10.60;;;5.30;99.90;;;;;;5093281;28;20865;-46
2022/11/17 07:13:38;;;;;;;10.30;8.20;;;5.40;99.90;;;;;;5093792;28;20561;-46
2022/11/17 07:16:08;;;;;;;5.87;5.27;;;5.30;99.90;;;;;;5093456;28;20533;-46
2022/11/17 07:18:36;;;;;;;8.33;7.53;;;5.10;99.90;;;;;;5094383;28;20470;-47
2022/11/17 07:21:04;;;;;;;11.13;8.10;;;5.30;99.90;;;;;;5093917;28;20570;-46
2022/11/17 07:23:32;;;;;;;8.33;7.53;;;5.40;99.90;;;;;;5093152;28;20483;-46
2022/11/17 07:25:59;;;;;;;7.43;6.70;;;5.40;99.90;;;;;;5094001;28;20531;-48
2022/11/17 07:28:27;;;;;;;14.23;8.93;;;5.50;99.90;;;;;;5093624;28;20443;-46
2022/11/17 07:30:54;;;;;;;6.40;5.80;;;5.50;99.90;;;;;;5094050;28;20995;-46
2022/11/17 07:33:21;;;;;;;6.30;5.20;;;5.50;99.90;;;;;;5093547;28;20510;-46
2022/11/17 07:35:50;;;;;;;8.30;7.50;;;5.40;99.90;;;;;;5082363;28;20437;-46
2022/11/17 07:38:16;;;;;;;7.63;6.83;;;5.40;99.90;;;;;;5074890;28;20825;-46
2022/11/17 07:40:43;;;;;;;7.87;6.80;;;5.50;99.90;;;;;;5093420;28;20481;-47
2022/11/17 07:43:11;;;;;;;8.57;7.33;;;5.50;99.90;;;;;;5092854;28;20463;-46
2022/11/17 07:45:38;;;;;;;14.97;12.70;;;5.10;99.90;;;;;;5093861;28;20454;-49
2022/11/17 07:48:06;;;;;;;10.00;7.80;;;4.90;99.90;;;;;;5093674;28;20529;-46
2022/11/17 07:50:33;;;;;;;8.40;7.50;;;4.70;99.90;;;;;;5093519;28;20450;-47
2022/11/17 07:53:02;;;;;;;11.87;10.40;;;5.00;99.90;;;;;;5092941;28;20463;-48
2022/11/17 07:55:28;;;;;;;13.77;12.30;;;5.20;99.90;;;;;;5080063;28;20475;-49
2022/11/17 07:57:56;;;;;;;8.37;7.47;;;5.30;99.90;;;;;;5073420;28;20447;-46
2022/11/17 08:00:23;;;;;;;6.80;5.73;;;4.60;99.90;;;;;;5072933;28;20494;-48
2022/11/17 08:02:50;;;;;;;6.27;5.27;;;4.30;99.90;;;;;;5072972;28;20522;-46
2022/11/17 08:05:17;;;;;;;5.33;4.10;;;4.30;99.90;;;;;;5072836;28;20446;-49
2022/11/17 08:07:45;;;;;;;6.10;2.90;;;4.50;99.90;;;;;;5072323;28;20472;-46
2022/11/17 08:10:13;;;;;;;2.70;2.40;;;4.60;99.90;;;;;;5072592;28;20526;-48
2022/11/17 08:12:40;;;;;;;5.50;4.80;;;4.70;99.90;;;;;;5076993;28;20534;-46
2022/11/17 08:15:08;;;;;;;5.10;4.60;;;5.00;99.90;;;;;;5092448;28;20533;-47
2022/11/17 08:17:35;;;;;;;6.90;4.53;;;5.20;99.90;;;;;;5092971;28;20466;-47
2022/11/17 08:20:03;;;;;;;4.93;3.60;;;5.10;99.90;;;;;;5092836;28;20542;-46
2022/11/17 08:22:30;;;;;;;7.73;6.57;;;5.20;99.90;;;;;;5092589;28;20483;-48
2022/11/17 08:24:57;;;;;;;3.10;2.80;;;5.10;99.90;;;;;;5101617;22;20582;-54
2022/11/17 08:27:26;;;;;;;9.57;3.80;;;5.10;99.90;;;;;;5071696;28;20472;-53
2022/11/17 08:29:53;;;;;;;3.80;3.30;;;5.10;99.90;;;;;;5072225;28;20476;-54
2022/11/17 08:32:21;;;;;;;3.77;3.47;;;5.20;99.90;;;;;;5072505;28;20808;-54
2022/11/17 08:34:47;;;;;;;4.93;3.63;;;5.30;99.90;;;;;;5072118;28;20501;-53
2022/11/17 08:37:14;;;;;;;3.50;2.90;;;4.80;99.90;;;;;;5072166;28;20428;-54
2022/11/17 08:39:41;;;;;;;2.90;2.50;;;4.70;99.90;;;;;;5072044;28;20833;-54
2022/11/17 08:42:08;;;;;;;3.83;2.90;;;4.90;99.90;;;;;;5071869;28;20479;-55
2022/11/17 08:44:36;;;;;;;6.67;3.40;;;5.00;99.90;;;;;;5071637;28;20467;-54
2022/11/17 08:47:03;;;;;;;3.33;2.70;;;5.10;99.90;;;;;;5071859;28;20521;-53
2022/11/17 08:49:30;;;;;;;3.60;2.97;;;5.20;99.90;;;;;;5070327;28;20450;-54
2022/11/17 08:51:57;;;;;;;10.13;8.73;;;5.30;99.90;;;;;;5072223;28;20533;-54
2022/11/17 08:54:23;;;;;;;9.60;8.33;;;5.40;99.90;;;;;;5071571;28;20498;-54
2022/11/17 08:56:50;;;;;;;6.60;5.30;;;5.50;99.90;;;;;;5072033;28;20443;-55
2022/11/17 08:59:17;;;;;;;12.03;9.90;;;5.60;99.90;;;;;;5071919;28;20449;-54
2022/11/17 09:01:45;;;;;;;8.13;7.40;;;5.50;99.90;;;;;;5071786;28;20484;-54
2022/11/17 09:04:12;;;;;;;9.87;8.90;;;5.50;99.90;;;;;;5071394;28;20562;-53
2022/11/17 09:06:39;;;;;;;6.67;5.77;;;5.60;99.90;;;;;;5071210;28;20448;-54
2022/11/17 09:09:06;;;;;;;8.97;8.23;;;5.70;99.90;;;;;;5071375;28;20536;-54
2022/11/17 09:11:33;;;;;;;8.37;7.50;;;5.70;99.90;;;;;;5071931;28;20437;-52
2022/11/17 09:13:59;;;;;;;7.43;6.80;;;5.70;99.90;;;;;;5071148;28;20455;-52
2022/11/17 09:16:26;;;;;;;5.73;5.20;;;5.70;99.90;;;;;;5071398;28;20451;-52
2022/11/17 09:18:58;;;;;;;3.80;3.50;;;5.70;99.90;;;;;;5071639;28;20437;-52
2022/11/17 09:21:26;;;;;;;5.33;2.90;;;5.30;99.90;;;;;;5071586;28;20565;-52
2022/11/17 09:23:53;;;;;;;2.40;2.20;;;5.10;99.90;;;;;;5071392;28;20476;-53
2022/11/17 09:26:20;;;;;;;4.05;2.78;;;5.20;99.90;;;;;;5070493;28;20516;-52
2022/11/17 09:28:47;;;;;;;2.30;2.10;;;5.40;99.90;;;;;;5070688;28;20277;-52
2022/11/17 09:31:16;;;;;;;1.57;1.10;;;5.50;99.90;;;;;;5071329;28;20489;-52
2022/11/17 09:33:43;;;;;;;1.53;1.40;;;5.30;99.90;;;;;;5070270;28;20468;-53
2022/11/17 09:36:14;;;;;;;2.30;1.13;;;5.30;99.90;;;;;;5071314;28;20532;-52
2022/11/17 09:38:41;;;;;;;2.57;1.20;;;5.50;99.90;;;;;;5071523;28;20544;-52
2022/11/17 09:41:27;;;;;;;1.00;0.70;;;5.60;99.90;;;;;;5071113;28;20829;-52
2022/11/17 09:44:06;;;;;;;42.30;10.70;;;5.90;99.90;;;;;;5071077;28;20543;-53
2022/11/17 09:46:46;;;;;;;12.40;3.60;;;6.10;99.90;;;;;;5071354;28;20436;-53
2022/11/17 09:49:24;;;;;;;2.50;2.17;;;6.20;99.90;;;;;;5070996;28;20519;-52
2022/11/17 09:51:56;;;;;;;12.23;4.03;;;6.40;99.90;;;;;;5070772;28;20877;-52
2022/11/17 09:54:30;;;;;;;2.83;1.40;;;6.50;99.90;;;;;;5071092;28;20452;-52
2022/11/17 09:56:59;;;;;;;1.23;1.00;;;6.30;99.90;;;;;;5071254;28;20528;-53
2022/11/17 09:59:29;;;;;;;2.27;1.60;;;6.40;99.90;;;;;;5071062;28;20534;-54
2022/11/17 10:01:57;;;;;;;3.00;2.10;;;6.50;99.90;;;;;;5070602;28;20567;-51
2022/11/17 10:04:29;;;;;;;6.63;2.03;;;6.60;99.90;;;;;;5070975;28;20551;-51
2022/11/17 10:06:58;;;;;;;2.33;1.90;;;6.80;99.90;;;;;;5071014;28;20811;-51
2022/11/17 10:09:34;;;;;;;4.10;3.70;;;6.90;99.90;;;;;;5069533;28;20475;-51
2022/11/17 10:12:13;;;;;;;2.40;2.17;;;6.90;99.90;;;;;;5069508;28;20871;-52
2022/11/17 10:14:42;;;;;;;3.33;1.87;;;6.90;99.90;;;;;;5068935;28;20483;-51
2022/11/17 10:17:11;;;;;;;2.47;2.17;;;6.80;99.90;;;;;;5070535;28;20451;-51
2022/11/17 10:19:39;;;;;;;1.70;1.43;;;6.90;99.90;;;;;;5070561;28;20498;-52
2022/11/17 10:22:20;;;;;;;1.90;1.37;;;7.00;99.90;;;;;;5070081;28;20548;-51
2022/11/17 10:24:49;;;;;;;1.27;0.90;;;7.20;99.90;;;;;;5069400;28;20555;-51
2022/11/17 10:27:20;;;;;;;2.07;1.27;;;7.20;99.90;;;;;;5068944;28;20448;-51
2022/11/17 10:29:56;;;;;;;1.60;1.10;;;7.30;99.90;;;;;;5069288;28;21022;-51
2022/11/17 10:32:24;;;;;;;2.73;2.30;;;7.30;99.90;;;;;;5069323;28;20952;-51
2022/11/17 10:34:53;;;;;;;1.60;1.50;;;7.30;99.90;;;;;;5069658;28;20556;-51
2022/11/17 10:37:28;;;;;;;1.80;1.37;;;7.10;99.90;;;;;;5070491;28;20506;-50
2022/11/17 10:40:18;;;;;;;1.30;1.20;;;7.00;99.90;;;;;;5070993;28;20424;-52
2022/11/17 10:42:57;;;;;;;1.77;1.30;;;7.40;99.90;;;;;;5070352;28;20580;-51
2022/11/17 10:45:24;;;;;;;1.70;1.10;;;7.40;99.90;;;;;;5073370;28;20460;-51
2022/11/17 10:47:51;;;;;;;5.60;5.07;;;7.60;99.90;;;;;;5074149;28;20451;-52
2022/11/17 10:50:22;;;;;;;2.50;2.00;;;7.70;99.90;;;;;;5074124;28;20819;-51
2022/11/17 10:52:52;;;;;;;1.37;1.07;;;7.90;99.90;;;;;;5074561;28;20527;-50
2022/11/17 10:55:27;;;;;;;1.20;1.00;;;7.70;99.90;;;;;;5073410;28;20465;-51
2022/11/17 10:57:58;;;;;;;1.57;1.10;;;7.50;99.90;;;;;;5072287;28;20867;-53
2022/11/17 11:00:29;;;;;;;1.50;1.00;;;7.60;99.90;;;;;;5072388;28;20548;-51
2022/11/17 11:03:15;;;;;;;1.83;0.80;;;7.60;99.90;;;;;;5072363;28;20575;-54
2022/11/17 11:05:55;;;;;;;2.33;1.30;;;7.70;99.90;;;;;;5072405;28;20436;-51
2022/11/17 11:08:27;;;;;;;1.77;1.20;;;7.80;99.90;;;;;;5072254;28;20980;-51
2022/11/17 11:10:56;;;;;;;1.40;0.90;;;7.80;99.90;;;;;;5072894;28;20535;-51
2022/11/17 11:13:30;;;;;;;1.23;0.93;;;7.80;99.90;;;;;;5069559;28;20433;-53
2022/11/17 11:15:57;;;;;;;1.60;1.03;;;7.80;99.90;;;;;;5064031;28;20437;-53
2022/11/17 11:18:27;;;;;;;1.30;0.90;;;7.90;99.90;;;;;;5063513;28;20502;-51
2022/11/17 11:21:04;;;;;;;1.63;1.13;;;7.90;99.90;;;;;;5063634;28;20521;-51
2022/11/17 11:23:41;;;;;;;1.93;1.23;;;7.90;99.90;;;;;;5070560;28;20468;-51
2022/11/17 11:26:19;;;;;;;1.30;1.00;;;7.90;99.90;;;;;;5070903;28;20929;-51
2022/11/17 11:28:58;;;;;;;1.70;1.30;;;7.90;99.90;;;;;;5067506;28;20529;-50
2022/11/17 11:31:31;;;;;;;1.77;1.10;;;8.00;99.90;;;;;;5070681;28;20436;-51
2022/11/17 11:34:14;;;;;;;2.00;1.20;;;8.00;99.90;;;;;;5072802;28;20461;-53
2022/11/17 11:36:44;;;;;;;3.43;1.10;;;8.10;99.90;;;;;;5072894;28;20475;-52
2022/11/17 11:39:25;;;;;;;2.80;1.40;;;8.20;99.90;;;;;;5072967;28;20519;-52
2022/11/17 11:42:15;;;;;;;1.07;0.87;;;8.20;99.90;;;;;;5067732;28;20567;-51
2022/11/17 11:44:58;;;;;;;2.57;1.30;;;8.20;99.90;;;;;;5073040;28;20568;-51
2022/11/17 11:47:42;;;;;;;3.10;1.50;;;8.30;99.90;;;;;;5073095;28;20447;-50
2022/11/17 11:50:15;;;;;;;3.47;1.70;;;8.40;99.90;;;;;;5072454;28;20451;-51
2022/11/17 11:52:47;;;;;;;3.20;1.80;;;8.40;99.90;;;;;;5073060;28;20527;-51
2022/11/17 11:55:21;;;;;;;2.90;2.03;;;8.40;99.90;;;;;;5072836;28;20464;-53
2022/11/17 11:57:52;;;;;;;3.53;2.13;;;8.40;99.90;;;;;;5071841;28;20903;-51
2022/11/17 12:00:19;;;;;;;2.13;1.87;;;8.50;99.90;;;;;;5072746;28;20441;-51
2022/11/17 12:02:52;;;;;;;1.50;1.23;;;8.50;99.90;;;;;;5072298;28;20576;-51
2022/11/17 12:05:26;;;;;;;1.90;1.40;;;8.60;99.90;;;;;;5072611;28;20464;-50
2022/11/17 12:08:01;;;;;;;2.40;1.83;;;8.60;99.90;;;;;;5071758;28;21104;-51
2022/11/17 12:10:34;;;;;;;2.60;1.97;;;8.50;99.90;;;;;;5072142;28;20972;-51
2022/11/17 12:13:03;;;;;;;2.73;1.70;;;8.60;99.90;;;;;;5071874;28;20531;-51
2022/11/17 12:15:32;;;;;;;2.60;2.23;;;8.60;99.90;;;;;;5072004;28;21017;-51
2022/11/17 12:18:02;;;;;;;2.50;2.13;;;8.70;99.90;;;;;;5072200;28;20870;-51
2022/11/17 12:20:51;;;;;;;3.20;2.90;;;8.70;99.90;;;;;;5071845;28;20531;-51
2022/11/17 12:23:26;;;;;;;3.07;2.50;;;8.70;99.90;;;;;;5071940;28;21005;-52
2022/11/17 12:25:55;;;;;;;2.97;2.07;;;8.70;99.90;;;;;;5072435;28;20472;-51
2022/11/17 12:28:32;;;;;;;4.03;2.20;;;8.70;99.90;;;;;;5072197;28;20437;-51
2022/11/17 12:31:01;;;;;;;2.43;1.97;;;8.70;99.90;;;;;;5072448;28;20463;-51
2022/11/17 12:34:05;;;;;;;2.27;1.90;;;8.70;99.90;;;;;;5071140;28;20444;-51
2022/11/17 12:36:33;;;;;;;2.30;1.90;;;8.80;99.90;;;;;;5072276;28;20505;-51
2022/11/17 12:39:01;;;;;;;2.13;1.90;;;8.80;99.90;;;;;;5072138;28;20445;-51
2022/11/17 12:42:07;;;;;;;3.00;1.77;;;8.90;99.90;;;;;;5071952;28;20536;-51
2022/11/17 12:44:58;;;;;;;2.73;1.73;;;8.90;99.90;;;;;;5071932;28;20551;-51
2022/11/17 12:47:27;;;;;;;3.03;2.40;;;9.00;99.90;;;;;;5072477;28;20441;-51
2022/11/17 12:50:22;;;;;;;2.20;1.80;;;9.00;99.90;;;;;;5071797;28;20470;-53
2022/11/17 12:53:07;;;;;;;2.43;1.97;;;8.90;99.90;;;;;;5071895;28;20523;-51
2022/11/17 12:55:47;;;;;;;2.33;2.13;;;8.90;99.90;;;;;;5071480;28;20550;-52
2022/11/17 12:58:22;;;;;;;2.77;2.03;;;9.00;99.90;;;;;;5071603;28;20523;-54
2022/11/17 13:01:00;;;;;;;2.83;2.00;;;9.00;99.90;;;;;;5071876;28;20458;-51
2022/11/17 13:03:39;;;;;;;2.37;2.10;;;9.00;99.90;;;;;;5071594;28;20480;-52
2022/11/17 13:06:07;;;;;;;3.13;2.07;;;9.00;99.90;;;;;;5071699;28;20531;-51
2022/11/17 13:08:34;;;;;;;2.77;2.50;;;9.00;99.90;;;;;;5070695;28;20960;-51
2022/11/17 13:11:06;;;;;;;3.57;2.60;;;9.10;99.90;;;;;;5071244;28;20441;-51
2022/11/17 13:13:34;;;;;;;2.40;1.83;;;9.00;99.90;;;;;;5071210;28;21176;-52
2022/11/17 13:16:02;;;;;;;3.70;2.50;;;9.00;99.90;;;;;;5071220;28;20436;-52
2022/11/17 13:18:31;;;;;;;2.97;2.10;;;9.00;99.90;;;;;;5071789;28;20440;-51
2022/11/17 13:20:59;;;;;;;2.77;1.93;;;9.00;99.90;;;;;;5071732;28;20448;-51
2022/11/17 13:23:27;;;;;;;2.67;2.17;;;9.10;99.90;;;;;;5071180;28;20473;-52
2022/11/17 13:26:18;;;;;;;3.27;2.63;;;9.10;99.90;;;;;;5071113;28;20453;-51
2022/11/17 13:28:47;;;;;;;2.10;1.90;;;9.00;99.90;;;;;;5071232;28;20442;-51
2022/11/17 13:31:19;;;;;;;2.23;2.03;;;9.10;99.90;;;;;;5071318;28;20528;-51
2022/11/17 13:33:56;;;;;;;3.47;2.03;;;9.00;99.90;;;;;;5071072;28;20498;-51
2022/11/17 13:36:26;;;;;;;3.27;2.60;;;9.00;99.90;;;;;;5071551;28;20447;-51
2022/11/17 13:38:56;;;;;;;2.40;2.20;;;9.00;99.90;;;;;;5070708;28;20469;-52
2022/11/17 13:41:24;;;;;;;2.70;2.07;;;9.00;99.90;;;;;;5071608;28;20452;-51
2022/11/17 13:43:54;;;;;;;2.40;2.20;;;9.00;99.90;;;;;;5070890;28;20477;-51